Metlakatla Information

FAA: MTM - ICAO: PAMM

Metlakatla (Seaplane Base) Location

State Alaska
County Prince Of Wales
City Metlakatla
Metlakatla (Seaplane Base) is 0 miles north of Metlakatla, AK.
Latitude 55-07-51.7630N
Longitude 131-34-41.0430W
Elevation 0ft

Metlakatla METARs

METAR PAMM 190756Z AUTO 00000KT 10SM SCT110 06/05 A3006 RMK AO2 SLP169 T00610050 401000061 $
Altimeter 30.06"
Temperature 6.1°C (43.0°F)
Wind 0° at 0KT
Clouds scattered at 11,000ft
Visibility 10.0mi
Time observed: 2022-05-19T07:56:00Z

Metlakatla (Seaplane Base) Details

Status Operational
Activation December 1950
Ownership Public
Usage Public
Chart KETCHIKAN
ATC on-site No
Beacon schedule N/A
Beacon color N/A

Metlakatla (Seaplane Base) Contacts

Owner ALASKA DOT&PF SOUTHCOAST REGION
Owner address 6860 GLACIER HWY, JUNEAU, AK 99801-7999
Owner phone (907) 465-4512
Manager DENNIS WALKER
Manager address 6341 QUIET CIR, ANCHORAGE, AK 99502
Manager phone 907-229-4709

Metlakatla Radio Frequencies

Metlakatla (Seaplane Base) Radio Frequencies

UNICOM N/A
Common traffic advisory frequency (CTAF) 122.9